WetterOnline ( https://www.wetteronline.de )

Wetter aktuell Fehmarn

Aktuelles Wetter: Westermarkelsdorf (9m)

6-stündlich | Neueste Meldungen
Ortszeit Temperatur Wetter
Fr, 17.01. 13:00 7.8° C leicht bewölkt
Fr, 17.01. 7:00 5.5° C leicht bewölkt
Fr, 17.01. 1:00 5.2° C wolkig
Do, 16.01. 19:00 5.6° C wolkig
Do, 16.01. 13:00 6.8° C leicht bewölkt
Do, 16.01. 7:00 6.3° C leicht bewölkt
Do, 16.01. 1:00 6.3° C wolkenlos
Mi, 15.01. 19:00 10.5° C bedeckt
Ortszeit Temperatur Wetter
Fr, 17.01. 17:00 6.5° C leicht bewölkt
Fr, 17.01. 16:50 6.5° C leicht bewölkt
Fr, 17.01. 16:40 6.4° C wolkenlos
Fr, 17.01. 16:30 6.7° C wolkenlos
Fr, 17.01. 16:20 6.7° C wolkenlos
Fr, 17.01. 16:10 6.9° C wolkenlos
Fr, 17.01. 16:00 7.0° C wolkenlos
Fr, 17.01. 15:30 7.5° C fast wolkenlos
Fr, 17.01. 15:00 7.7° C fast wolkenlos
Fr, 17.01. 14:30 7.9° C wolkig
Fr, 17.01. 14:00 7.9° C leicht bewölkt
Ortszeit Relative Feuchte Sichtweite
Fr, 17.01. 13:00 77% 27 km
Fr, 17.01. 7:00 89% 24 km
Fr, 17.01. 1:00 91% 24 km
Do, 16.01. 19:00 88% 35 km
Do, 16.01. 13:00 85% 14 km
Do, 16.01. 7:00 88% 25 km
Do, 16.01. 1:00 85% 45 km
Mi, 15.01. 19:00 69% 50 km
Ortszeit Relative Feuchte Sichtweite
Fr, 17.01. 17:00 85% 26 km
Fr, 17.01. 16:50 85% -
Fr, 17.01. 16:40 86% -
Fr, 17.01. 16:30 83% 30 km
Fr, 17.01. 16:20 83% -
Fr, 17.01. 16:10 82% -
Fr, 17.01. 16:00 82% 30 km
Fr, 17.01. 15:30 79% 30 km
Fr, 17.01. 15:00 80% 30 km
Fr, 17.01. 14:30 78% 27 km
Fr, 17.01. 14:00 77% 29 km
Ortszeit Niederschlagsmenge Niederschlagsart
Fr, 17.01. 13:00 0.0 l/m2 in 6 Std. -
Fr, 17.01. 7:00 0.0 l/m2 in 12 Std. -
Fr, 17.01. 1:00 0.0 l/m2 in 6 Std. -
Do, 16.01. 19:00 0.0 l/m2 in 12 Std. -
Do, 16.01. 13:00 0.0 l/m2 in 6 Std. -
Do, 16.01. 7:00 0.1 l/m2 in 12 Std. -
Do, 16.01. 1:00 0.1 l/m2 in 6 Std. Regen
Mi, 15.01. 19:00 0.1 l/m2 in 12 Std. -
Ortszeit Niederschlagsmenge Niederschlagsart
Fr, 17.01. 17:00 0.0 l/m2 in 1 Std. -
Fr, 17.01. 16:50 keine Meldung -
Fr, 17.01. 16:40 keine Meldung -
Fr, 17.01. 16:30 0.0 l/m2 in 1 Std. -
Fr, 17.01. 16:20 keine Meldung -
Fr, 17.01. 16:10 keine Meldung -
Fr, 17.01. 16:00 0.0 l/m2 in 1 Std. -
Fr, 17.01. 15:30 0.0 l/m2 in 1 Std. -
Fr, 17.01. 15:00 0.0 l/m2 in 1 Std. -
Fr, 17.01. 14:30 0.0 l/m2 in 1 Std. -
Fr, 17.01. 14:00 0.0 l/m2 in 1 Std. -
Ortszeit Stärke Spitze Richtung
km/h Bft. km/h Grad Sektor
Fr, 17.01. 13:00 28 4 44 150° SO
Fr, 17.01. 7:00 28 4 43 160° S
Fr, 17.01. 1:00 22 4 40 160° S
Do, 16.01. 19:00 18 3 32 170° S
Do, 16.01. 13:00 22 4 43 220° SW
Do, 16.01. 7:00 28 4 41 230° SW
Do, 16.01. 1:00 25 4 58 240° SW
Mi, 15.01. 19:00 28 4 50 230° SW
Ortszeit Stärke Spitze Richtung
km/h Bft. km/h Grad Sektor
Fr, 17.01. 17:00 20 4 31 160° S
Fr, 17.01. 16:50 20 4 - 160° S
Fr, 17.01. 16:40 20 4 - 160° S
Fr, 17.01. 16:30 20 4 31 160° S
Fr, 17.01. 16:20 20 4 - 160° S
Fr, 17.01. 16:10 22 4 - 160° S
Fr, 17.01. 16:00 22 4 32 160° S
Fr, 17.01. 15:30 20 4 30 160° S
Fr, 17.01. 15:00 22 4 36 160° S
Fr, 17.01. 14:30 24 4 37 170° S
Fr, 17.01. 14:00 24 4 41 170° S
Ortszeit Untergrenze Bedeckung Gattung
total tief tief mittel hoch
Fr, 17.01. 13:00 8400 m 5/8 0/8 - - -
Fr, 17.01. 7:00 9000 m 5/8 0/8 - - -
Fr, 17.01. 1:00 960 m 8/8 1/8 - - -
Do, 16.01. 19:00 9000 m 8/8 0/8 - - -
Do, 16.01. 13:00 8700 m 6/8 0/8 - - -
Do, 16.01. 7:00 660 m 4/8 4/8 - - -
Do, 16.01. 1:00 - 0/8 0/8 - - -
Mi, 15.01. 19:00 1110 m 8/8 8/8 - - -
Ortszeit Bedeckungsgrad in Achtel und Wolkenuntergrenze
Fr, 17.01. 17:00 4(2400m)
Fr, 17.01. 16:50 4(2400m)
Fr, 17.01. 16:40 keine Wolken
Fr, 17.01. 16:30 keine Wolken
Fr, 17.01. 16:20 keine Wolken
Fr, 17.01. 16:10 keine Wolken
Fr, 17.01. 16:00 keine Wolken
Fr, 17.01. 15:30 2(9000m)
Fr, 17.01. 15:00 1(8400m)
Fr, 17.01. 14:30 7(7800m) 8(8400m) 8(9000m)
Fr, 17.01. 14:00 5(8100m) 6(8400m) 6(9000m)
Ortszeit Luftdruck NN (hPa) Tendenz (hPa in 3 Std.)
Fr, 17.01. 13:00 1015 - 2,3
Fr, 17.01. 7:00 1018 - 2,3
Fr, 17.01. 1:00 1022 - 1,7
Do, 16.01. 19:00 1025 - 0,4
Do, 16.01. 13:00 1026 + 0,9
Do, 16.01. 7:00 1022 + 2,2
Do, 16.01. 1:00 1017 + 3,8
Mi, 15.01. 19:00 1008 + 1,6
Ortszeit Luftdruck NN (hPa) Tendenz (hPa in 3 Std.)
Fr, 17.01. 17:00 1012 - 1,5
Fr, 17.01. 16:50 1012 keine Meldung
Fr, 17.01. 16:40 1013 keine Meldung
Fr, 17.01. 16:30 1013 - 1,5
Fr, 17.01. 16:20 1013 keine Meldung
Fr, 17.01. 16:10 1012 keine Meldung
Fr, 17.01. 16:00 1013 - 1,8
Fr, 17.01. 15:30 1013 - 2,1
Fr, 17.01. 15:00 1013 - 2,6
Fr, 17.01. 14:30 1013 - 2,7
Fr, 17.01. 14:00 1014 - 2,3
Ortszeit Schneehöhe (cm)
Fr, 17.01. 13:00 0
Fr, 17.01. 7:00 0
Fr, 17.01. 1:00 0
Do, 16.01. 19:00 0
Do, 16.01. 13:00 0
Do, 16.01. 7:00 0
Do, 16.01. 1:00 0
Mi, 15.01. 19:00 0
Ortszeit Schneehöhe (cm)
Fr, 17.01. 17:00 0
Fr, 17.01. 16:50 0
Fr, 17.01. 16:40 0
Fr, 17.01. 16:30 0
Fr, 17.01. 16:20 0
Fr, 17.01. 16:10 0
Fr, 17.01. 16:00 0
Fr, 17.01. 15:30 0
Fr, 17.01. 15:00 0
Fr, 17.01. 14:30 0
Fr, 17.01. 14:00 0
Link zu dieser Seite / Seite empfehlen

Das Wetter in ...